createdAt,value
2022-10-02T00:01:46.567Z,1003.483
2022-10-02T00:06:49.177Z,1003.553
2022-10-02T00:11:51.914Z,1003.687
2022-10-02T00:16:54.468Z,1003.657
2022-10-02T00:21:56.950Z,1003.712
2022-10-02T00:26:59.525Z,1003.723
2022-10-02T00:32:02.019Z,1003.783
2022-10-02T00:37:04.602Z,1003.765
2022-10-02T00:42:07.399Z,1003.767
2022-10-02T00:52:12.736Z,1003.805
2022-10-02T01:02:18.015Z,1003.87
2022-10-02T01:07:20.736Z,1003.935
2022-10-02T01:12:23.437Z,1004.032
2022-10-02T01:17:28.862Z,1004.025
2022-10-02T01:22:31.376Z,1003.999
2022-10-02T01:32:36.614Z,1004.163
2022-10-02T01:42:42.076Z,1004.293
2022-10-02T01:47:44.859Z,1004.302
2022-10-02T01:52:47.553Z,1004.35
2022-10-02T01:57:50.156Z,1004.319
2022-10-02T02:02:52.845Z,1004.401
2022-10-02T02:08:04.398Z,1004.408
2022-10-02T02:13:07.109Z,1004.512
2022-10-02T02:18:09.991Z,1004.546
2022-10-02T02:23:12.552Z,1004.588
2022-10-02T02:28:15.185Z,1004.546
2022-10-02T02:33:17.706Z,1004.578
2022-10-02T02:38:20.385Z,1004.64
2022-10-02T02:43:23.021Z,1004.533
2022-10-02T02:48:25.642Z,1004.566
2022-10-02T02:53:28.151Z,1004.609
2022-10-02T02:58:58.149Z,1004.686
2022-10-02T03:04:01.033Z,1004.714
2022-10-02T03:09:03.444Z,1004.734
2022-10-02T03:14:05.999Z,1004.818
2022-10-02T03:19:08.736Z,1004.826
2022-10-02T03:29:14.043Z,1004.865
2022-10-02T03:34:21.749Z,1004.858
2022-10-02T03:39:25.827Z,1004.934
2022-10-02T03:44:27.019Z,1004.922
2022-10-02T03:49:30.037Z,1004.86
2022-10-02T03:59:35.532Z,1004.842
2022-10-02T04:04:38.263Z,1004.825
2022-10-02T04:09:40.973Z,1004.853
2022-10-02T04:19:46.376Z,1004.866
2022-10-02T04:24:51.769Z,1004.898
2022-10-02T04:29:54.382Z,1005.012
2022-10-02T04:34:57.146Z,1004.963
2022-10-02T04:39:59.727Z,1004.994
2022-10-02T04:45:02.527Z,1004.963
2022-10-02T04:50:05.205Z,1005.075
2022-10-02T04:55:07.932Z,1005.061
2022-10-02T05:00:10.755Z,1004.955
2022-10-02T05:05:14.187Z,1005.059
2022-10-02T05:10:16.826Z,1005.047
2022-10-02T05:15:22.263Z,1005.117
2022-10-02T05:20:25.222Z,1005.198
2022-10-02T05:30:30.318Z,1005.284
2022-10-02T05:35:32.222Z,1005.311
2022-10-02T05:40:34.931Z,1005.312
2022-10-02T05:45:42.917Z,1005.234
2022-10-02T05:50:45.574Z,1005.243
2022-10-02T05:55:48.328Z,1005.431
2022-10-02T06:00:51.170Z,1005.388
2022-10-02T06:05:53.749Z,1005.559
2022-10-02T06:15:59.103Z,1005.503
2022-10-02T06:21:01.727Z,1005.482
2022-10-02T06:31:07.035Z,1005.526
2022-10-02T06:41:12.697Z,1005.641
2022-10-02T06:46:15.429Z,1005.644
2022-10-02T06:51:17.998Z,1005.642
2022-10-02T06:56:20.529Z,1005.535
2022-10-02T07:01:23.137Z,1005.547
2022-10-02T07:06:25.801Z,1005.53
2022-10-02T07:11:28.985Z,1005.475
2022-10-02T07:16:31.543Z,1005.577
2022-10-02T07:21:34.193Z,1005.605
2022-10-02T07:26:37.324Z,1005.543
2022-10-02T07:31:39.871Z,1005.608
2022-10-02T07:36:42.643Z,1005.686
2022-10-02T07:41:45.489Z,1005.69
2022-10-02T07:46:48.073Z,1005.729
2022-10-02T07:51:50.801Z,1005.674
2022-10-02T08:01:56.427Z,1005.965
2022-10-02T08:06:59.113Z,1005.896
2022-10-02T08:12:01.693Z,1005.88
2022-10-02T08:22:07.205Z,1005.697
2022-10-02T08:27:09.981Z,1005.747
2022-10-02T08:37:15.281Z,1005.589
2022-10-02T08:42:18.136Z,1005.719
2022-10-02T08:52:23.705Z,1005.718
2022-10-02T08:57:26.392Z,1005.769
2022-10-02T09:02:31.661Z,1005.598
2022-10-02T09:07:34.249Z,1005.668
2022-10-02T09:12:37.125Z,1005.805
2022-10-02T09:17:40.326Z,1005.766
2022-10-02T09:22:42.875Z,1005.739
2022-10-02T09:32:47.941Z,1005.755
2022-10-02T09:42:53.668Z,1005.456
2022-10-02T09:47:56.335Z,1005.386
2022-10-02T09:52:58.894Z,1005.384
2022-10-02T09:58:01.616Z,1005.486
2022-10-02T10:03:04.304Z,1005.566
2022-10-02T10:08:09.876Z,1005.507
2022-10-02T10:13:12.393Z,1005.757
2022-10-02T10:23:17.451Z,1005.658
2022-10-02T10:28:20.322Z,1005.737
2022-10-02T10:33:22.907Z,1005.701
2022-10-02T10:38:32.197Z,1005.798
2022-10-02T10:43:35.003Z,1005.792
2022-10-02T10:53:40.261Z,1005.769
2022-10-02T11:08:48.500Z,1005.659
2022-10-02T11:13:51.163Z,1005.696
2022-10-02T11:18:56.604Z,1005.757
2022-10-02T11:23:59.271Z,1005.81
2022-10-02T11:34:04.505Z,1005.582
2022-10-02T11:49:12.764Z,1005.576
2022-10-02T11:54:15.427Z,1005.575
2022-10-02T11:59:18.531Z,1005.495
2022-10-02T12:09:26.803Z,1005.555
2022-10-02T12:24:38.646Z,1005.638
2022-10-02T12:34:43.951Z,1005.751
2022-10-02T12:39:46.803Z,1005.648
2022-10-02T12:55:22.618Z,1005.682
2022-10-02T13:00:25.092Z,1005.607
2022-10-02T13:05:33.469Z,1005.553
2022-10-02T13:10:36.036Z,1005.64
2022-10-02T13:15:38.635Z,1005.63
2022-10-02T13:20:41.441Z,1005.604
2022-10-02T13:25:44.033Z,1005.523
2022-10-02T13:45:54.122Z,1005.682
2022-10-02T13:50:56.765Z,1005.53
2022-10-02T13:55:59.160Z,1005.595
2022-10-02T14:01:02.395Z,1005.647
2022-10-02T14:06:07.601Z,1005.553
2022-10-02T14:11:15.752Z,1005.565
2022-10-02T14:21:20.989Z,1005.75
2022-10-02T14:26:23.683Z,1005.812
2022-10-02T14:31:26.450Z,1005.822
2022-10-02T14:36:29.076Z,1005.807
2022-10-02T14:41:31.984Z,1005.988
2022-10-02T14:51:37.762Z,1005.89
2022-10-02T15:01:42.530Z,1005.971
2022-10-02T15:06:45.200Z,1005.963
2022-10-02T15:11:47.514Z,1006.116
2022-10-02T15:21:52.833Z,1006.102
2022-10-02T15:31:57.717Z,1006.205
2022-10-02T15:37:06.759Z,1006.282
2022-10-02T15:42:09.375Z,1006.27
2022-10-02T15:47:12.046Z,1006.282
2022-10-02T15:52:14.680Z,1006.369
2022-10-02T15:57:17.147Z,1006.367
2022-10-02T16:17:27.830Z,1006.644
2022-10-02T16:22:30.574Z,1006.795
2022-10-02T16:32:36.070Z,1006.746
2022-10-02T16:37:44.091Z,1006.878
2022-10-02T16:42:46.816Z,1006.928
2022-10-02T16:47:49.536Z,1007.034
2022-10-02T16:52:51.995Z,1007.059
2022-10-02T16:57:54.699Z,1007.105
2022-10-02T17:02:57.385Z,1007.099
2022-10-02T17:07:59.726Z,1007.179
2022-10-02T17:18:05.142Z,1007.218
2022-10-02T17:23:07.829Z,1007.324
2022-10-02T17:33:13.271Z,1007.472
2022-10-02T17:48:21.246Z,1007.804
2022-10-02T17:53:23.964Z,1007.858
2022-10-02T17:58:26.291Z,1007.969
2022-10-02T18:03:29.352Z,1007.987
2022-10-02T18:08:32.412Z,1008.075
2022-10-02T18:13:35.114Z,1008.109
2022-10-02T18:18:37.968Z,1008.18
2022-10-02T18:23:40.563Z,1008.179
2022-10-02T18:28:43.319Z,1008.244
2022-10-02T18:33:45.982Z,1008.316
2022-10-02T18:38:51.389Z,1008.355
2022-10-02T18:43:54.030Z,1008.384
2022-10-02T18:48:56.681Z,1008.378
2022-10-02T18:53:59.415Z,1008.417
2022-10-02T18:59:02.085Z,1008.446
2022-10-02T19:04:04.826Z,1008.538
2022-10-02T19:09:07.500Z,1008.597
2022-10-02T19:14:09.900Z,1008.675
2022-10-02T19:19:12.598Z,1008.722
2022-10-02T19:24:15.521Z,1008.667
2022-10-02T19:29:17.994Z,1008.777
2022-10-02T19:34:20.908Z,1008.832
2022-10-02T19:39:23.480Z,1008.949
2022-10-02T19:44:26.032Z,1008.948
2022-10-02T19:49:28.719Z,1008.939
2022-10-02T19:54:31.660Z,1009.044
2022-10-02T19:59:34.453Z,1009.092
2022-10-02T20:04:37.766Z,1009.169
2022-10-02T20:09:43.067Z,1009.165
2022-10-02T20:14:45.693Z,1009.114
2022-10-02T20:19:48.299Z,1009.16
2022-10-02T20:24:51.343Z,1009.238
2022-10-02T20:29:53.753Z,1009.252
2022-10-02T20:34:58.957Z,1009.397
2022-10-02T20:40:02.617Z,1009.375
2022-10-02T20:45:07.255Z,1009.367
2022-10-02T20:50:10.106Z,1009.413
2022-10-02T20:55:15.462Z,1009.436
2022-10-02T21:00:18.288Z,1009.525
2022-10-02T21:05:21.100Z,1009.603
2022-10-02T21:15:26.466Z,1009.678
2022-10-02T21:25:32.001Z,1009.736
2022-10-02T21:30:34.838Z,1009.756
2022-10-02T21:35:37.533Z,1009.801
2022-10-02T21:40:40.379Z,1009.846
2022-10-02T21:45:43.069Z,1009.888
2022-10-02T21:50:45.587Z,1009.887
2022-10-02T21:55:48.313Z,1009.902
2022-10-02T22:00:51.538Z,1009.912
2022-10-02T22:05:54.195Z,1009.97
2022-10-02T22:10:56.909Z,1009.928
2022-10-02T22:15:59.765Z,1010.026
2022-10-02T22:26:14.190Z,1010.012
2022-10-02T22:31:16.945Z,1010.125
2022-10-02T22:36:19.679Z,1010.135
2022-10-02T22:41:22.335Z,1010.151
2022-10-02T22:46:25.192Z,1010.192
2022-10-02T23:01:33.560Z,1010.216
2022-10-02T23:06:38.705Z,1010.242
2022-10-02T23:16:48.511Z,1010.333
2022-10-02T23:21:51.735Z,1010.341
2022-10-02T23:31:56.608Z,1010.365
2022-10-02T23:37:00.292Z,1010.418
2022-10-02T23:42:07.331Z,1010.58
2022-10-02T23:47:12.676Z,1010.607
2022-10-02T23:52:15.324Z,1010.661
2022-10-02T23:57:18.001Z,1010.657
